sensor_id;sensor_type;location;lat;lon;timestamp;P1;durP1;ratioP1;P2;durP2;ratioP2
74363;SDS011;62797;49.740;10.154;2023-12-28T00:00:49;18.58;;;10.35;;
74363;SDS011;62797;49.740;10.154;2023-12-28T00:03:14;20.75;;;10.07;;
74363;SDS011;62797;49.740;10.154;2023-12-28T00:05:40;19.90;;;11.17;;
74363;SDS011;62797;49.740;10.154;2023-12-28T00:08:06;25.47;;;11.70;;
74363;SDS011;62797;49.740;10.154;2023-12-28T00:10:31;20.90;;;11.13;;
74363;SDS011;62797;49.740;10.154;2023-12-28T00:12:57;21.88;;;11.82;;
74363;SDS011;62797;49.740;10.154;2023-12-28T00:15:23;24.50;;;10.55;;
74363;SDS011;62797;49.740;10.154;2023-12-28T00:17:48;19.65;;;10.40;;
74363;SDS011;62797;49.740;10.154;2023-12-28T00:20:14;20.15;;;9.38;;
74363;SDS011;62797;49.740;10.154;2023-12-28T00:22:40;15.27;;;8.18;;
74363;SDS011;62797;49.740;10.154;2023-12-28T00:25:05;20.13;;;9.07;;
74363;SDS011;62797;49.740;10.154;2023-12-28T00:27:32;15.80;;;7.40;;
74363;SDS011;62797;49.740;10.154;2023-12-28T00:30:04;12.43;;;6.55;;
74363;SDS011;62797;49.740;10.154;2023-12-28T00:32:30;14.20;;;6.85;;
74363;SDS011;62797;49.740;10.154;2023-12-28T00:34:56;9.73;;;6.68;;
74363;SDS011;62797;49.740;10.154;2023-12-28T00:37:21;16.50;;;8.35;;
74363;SDS011;62797;49.740;10.154;2023-12-28T00:39:49;11.13;;;6.90;;
74363;SDS011;62797;49.740;10.154;2023-12-28T00:42:17;13.77;;;7.65;;
74363;SDS011;62797;49.740;10.154;2023-12-28T00:44:44;15.82;;;7.30;;
74363;SDS011;62797;49.740;10.154;2023-12-28T00:47:10;15.43;;;8.80;;
74363;SDS011;62797;49.740;10.154;2023-12-28T00:49:36;14.40;;;8.38;;
74363;SDS011;62797;49.740;10.154;2023-12-28T00:52:01;18.55;;;9.68;;
74363;SDS011;62797;49.740;10.154;2023-12-28T00:54:29;16.23;;;8.98;;
74363;SDS011;62797;49.740;10.154;2023-12-28T00:56:55;16.40;;;7.82;;
74363;SDS011;62797;49.740;10.154;2023-12-28T00:59:20;15.50;;;8.48;;
74363;SDS011;62797;49.740;10.154;2023-12-28T01:01:46;17.48;;;8.93;;
74363;SDS011;62797;49.740;10.154;2023-12-28T01:04:11;14.57;;;8.55;;
74363;SDS011;62797;49.740;10.154;2023-12-28T01:06:37;16.42;;;7.88;;
74363;SDS011;62797;49.740;10.154;2023-12-28T01:09:03;13.63;;;7.50;;
74363;SDS011;62797;49.740;10.154;2023-12-28T01:11:30;16.48;;;7.28;;
74363;SDS011;62797;49.740;10.154;2023-12-28T01:13:56;19.88;;;7.85;;
74363;SDS011;62797;49.740;10.154;2023-12-28T01:16:22;16.63;;;8.40;;
74363;SDS011;62797;49.740;10.154;2023-12-28T01:18:48;13.07;;;8.20;;
74363;SDS011;62797;49.740;10.154;2023-12-28T01:21:14;10.47;;;6.23;;
74363;SDS011;62797;49.740;10.154;2023-12-28T01:23:39;13.18;;;6.80;;
74363;SDS011;62797;49.740;10.154;2023-12-28T01:26:05;17.60;;;9.02;;
74363;SDS011;62797;49.740;10.154;2023-12-28T01:28:30;15.43;;;8.32;;
74363;SDS011;62797;49.740;10.154;2023-12-28T01:30:56;15.30;;;6.40;;
74363;SDS011;62797;49.740;10.154;2023-12-28T01:33:22;12.15;;;6.10;;
74363;SDS011;62797;49.740;10.154;2023-12-28T01:35:47;11.77;;;6.57;;
74363;SDS011;62797;49.740;10.154;2023-12-28T01:38:13;42.73;;;7.83;;
74363;SDS011;62797;49.740;10.154;2023-12-28T01:40:44;14.93;;;6.85;;
74363;SDS011;62797;49.740;10.154;2023-12-28T01:43:11;13.75;;;6.45;;
74363;SDS011;62797;49.740;10.154;2023-12-28T01:45:36;14.68;;;7.75;;
74363;SDS011;62797;49.740;10.154;2023-12-28T01:48:02;14.25;;;8.05;;
74363;SDS011;62797;49.740;10.154;2023-12-28T01:50:29;9.07;;;5.88;;
74363;SDS011;62797;49.740;10.154;2023-12-28T01:52:56;15.32;;;8.38;;
74363;SDS011;62797;49.740;10.154;2023-12-28T01:55:26;26.77;;;9.18;;
74363;SDS011;62797;49.740;10.154;2023-12-28T01:57:55;18.45;;;8.50;;
74363;SDS011;62797;49.740;10.154;2023-12-28T02:00:24;18.15;;;7.63;;
74363;SDS011;62797;49.740;10.154;2023-12-28T02:02:50;17.67;;;7.43;;
74363;SDS011;62797;49.740;10.154;2023-12-28T02:05:17;11.80;;;5.88;;
74363;SDS011;62797;49.740;10.154;2023-12-28T02:07:42;11.75;;;6.35;;
74363;SDS011;62797;49.740;10.154;2023-12-28T02:10:08;17.77;;;7.68;;
74363;SDS011;62797;49.740;10.154;2023-12-28T02:12:34;12.82;;;6.78;;
74363;SDS011;62797;49.740;10.154;2023-12-28T02:15:00;8.85;;;5.47;;
74363;SDS011;62797;49.740;10.154;2023-12-28T02:17:50;11.55;;;5.85;;
74363;SDS011;62797;49.740;10.154;2023-12-28T02:20:15;22.17;;;6.18;;
74363;SDS011;62797;49.740;10.154;2023-12-28T02:22:41;14.15;;;6.18;;
74363;SDS011;62797;49.740;10.154;2023-12-28T02:25:08;9.75;;;5.25;;
74363;SDS011;62797;49.740;10.154;2023-12-28T02:27:46;11.35;;;5.03;;
74363;SDS011;62797;49.740;10.154;2023-12-28T02:30:15;12.57;;;6.28;;
74363;SDS011;62797;49.740;10.154;2023-12-28T02:37:50;22.42;;;6.30;;
74363;SDS011;62797;49.740;10.154;2023-12-28T02:40:18;10.43;;;5.30;;
74363;SDS011;62797;49.740;10.154;2023-12-28T02:42:44;11.07;;;6.20;;
74363;SDS011;62797;49.740;10.154;2023-12-28T02:45:12;28.48;;;6.35;;
74363;SDS011;62797;49.740;10.154;2023-12-28T02:47:38;7.80;;;4.40;;
74363;SDS011;62797;49.740;10.154;2023-12-28T02:50:04;5.82;;;3.55;;
74363;SDS011;62797;49.740;10.154;2023-12-28T02:52:30;6.72;;;3.33;;
74363;SDS011;62797;49.740;10.154;2023-12-28T02:57:22;9.55;;;4.10;;
74363;SDS011;62797;49.740;10.154;2023-12-28T02:59:49;8.38;;;3.60;;
74363;SDS011;62797;49.740;10.154;2023-12-28T03:02:14;8.23;;;4.40;;
74363;SDS011;62797;49.740;10.154;2023-12-28T03:04:40;10.53;;;4.23;;
74363;SDS011;62797;49.740;10.154;2023-12-28T03:07:07;8.80;;;4.28;;
74363;SDS011;62797;49.740;10.154;2023-12-28T03:09:33;6.65;;;4.93;;
74363;SDS011;62797;49.740;10.154;2023-12-28T03:11:59;9.15;;;4.35;;
74363;SDS011;62797;49.740;10.154;2023-12-28T03:14:26;8.60;;;4.40;;
74363;SDS011;62797;49.740;10.154;2023-12-28T03:16:52;7.18;;;4.22;;
74363;SDS011;62797;49.740;10.154;2023-12-28T03:19:17;6.73;;;4.00;;
74363;SDS011;62797;49.740;10.154;2023-12-28T03:21:44;9.80;;;4.07;;
74363;SDS011;62797;49.740;10.154;2023-12-28T03:24:10;10.37;;;4.13;;
74363;SDS011;62797;49.740;10.154;2023-12-28T03:26:38;9.85;;;3.97;;
74363;SDS011;62797;49.740;10.154;2023-12-28T03:29:07;5.25;;;3.28;;
74363;SDS011;62797;49.740;10.154;2023-12-28T03:31:33;8.20;;;4.43;;
74363;SDS011;62797;49.740;10.154;2023-12-28T03:34:04;10.60;;;3.80;;
74363;SDS011;62797;49.740;10.154;2023-12-28T03:36:30;8.03;;;4.50;;
74363;SDS011;62797;49.740;10.154;2023-12-28T03:38:57;7.67;;;2.77;;
74363;SDS011;62797;49.740;10.154;2023-12-28T03:41:23;7.28;;;3.55;;
74363;SDS011;62797;49.740;10.154;2023-12-28T03:43:49;5.33;;;3.53;;
74363;SDS011;62797;49.740;10.154;2023-12-28T03:46:14;21.40;;;4.10;;
74363;SDS011;62797;49.740;10.154;2023-12-28T03:48:40;11.47;;;3.63;;
74363;SDS011;62797;49.740;10.154;2023-12-28T03:51:05;6.93;;;3.38;;
74363;SDS011;62797;49.740;10.154;2023-12-28T03:53:32;14.68;;;6.53;;
74363;SDS011;62797;49.740;10.154;2023-12-28T03:55:58;5.13;;;3.03;;
74363;SDS011;62797;49.740;10.154;2023-12-28T03:58:24;8.82;;;4.43;;
74363;SDS011;62797;49.740;10.154;2023-12-28T04:00:50;5.10;;;3.00;;
74363;SDS011;62797;49.740;10.154;2023-12-28T04:03:16;4.47;;;2.90;;
74363;SDS011;62797;49.740;10.154;2023-12-28T04:05:43;4.93;;;3.00;;
74363;SDS011;62797;49.740;10.154;2023-12-28T04:10:34;7.88;;;4.57;;
74363;SDS011;62797;49.740;10.154;2023-12-28T04:13:02;8.38;;;3.45;;
74363;SDS011;62797;49.740;10.154;2023-12-28T04:15:29;9.18;;;4.25;;
74363;SDS011;62797;49.740;10.154;2023-12-28T04:17:56;6.45;;;3.45;;
74363;SDS011;62797;49.740;10.154;2023-12-28T04:20:22;11.05;;;4.18;;
74363;SDS011;62797;49.740;10.154;2023-12-28T04:22:47;10.88;;;4.57;;
74363;SDS011;62797;49.740;10.154;2023-12-28T04:25:13;11.63;;;5.00;;
74363;SDS011;62797;49.740;10.154;2023-12-28T04:27:41;9.05;;;4.18;;
74363;SDS011;62797;49.740;10.154;2023-12-28T04:32:36;7.10;;;3.90;;
74363;SDS011;62797;49.740;10.154;2023-12-28T04:35:02;8.75;;;4.50;;
74363;SDS011;62797;49.740;10.154;2023-12-28T04:37:31;6.45;;;3.40;;
74363;SDS011;62797;49.740;10.154;2023-12-28T04:40:03;7.68;;;4.10;;
74363;SDS011;62797;49.740;10.154;2023-12-28T04:42:29;8.32;;;4.03;;
74363;SDS011;62797;49.740;10.154;2023-12-28T04:44:55;9.37;;;4.47;;
74363;SDS011;62797;49.740;10.154;2023-12-28T04:47:20;5.80;;;2.87;;
74363;SDS011;62797;49.740;10.154;2023-12-28T04:49:46;11.27;;;4.00;;
74363;SDS011;62797;49.740;10.154;2023-12-28T04:52:12;7.07;;;4.40;;
74363;SDS011;62797;49.740;10.154;2023-12-28T04:54:40;10.73;;;4.50;;
74363;SDS011;62797;49.740;10.154;2023-12-28T04:57:05;5.65;;;3.22;;
74363;SDS011;62797;49.740;10.154;2023-12-28T04:59:37;7.35;;;3.92;;
74363;SDS011;62797;49.740;10.154;2023-12-28T05:02:06;12.57;;;4.47;;
74363;SDS011;62797;49.740;10.154;2023-12-28T05:04:32;6.80;;;4.40;;
74363;SDS011;62797;49.740;10.154;2023-12-28T05:06:58;5.10;;;3.50;;
74363;SDS011;62797;49.740;10.154;2023-12-28T05:09:24;7.83;;;3.77;;
74363;SDS011;62797;49.740;10.154;2023-12-28T05:11:50;6.82;;;3.35;;
74363;SDS011;62797;49.740;10.154;2023-12-28T05:14:15;8.83;;;4.07;;
74363;SDS011;62797;49.740;10.154;2023-12-28T05:16:41;8.47;;;5.00;;
74363;SDS011;62797;49.740;10.154;2023-12-28T05:19:07;6.32;;;3.47;;
74363;SDS011;62797;49.740;10.154;2023-12-28T05:21:33;6.03;;;3.53;;
74363;SDS011;62797;49.740;10.154;2023-12-28T05:23:59;9.27;;;4.77;;
74363;SDS011;62797;49.740;10.154;2023-12-28T05:26:27;10.37;;;4.47;;
74363;SDS011;62797;49.740;10.154;2023-12-28T05:28:53;7.22;;;4.05;;
74363;SDS011;62797;49.740;10.154;2023-12-28T05:31:18;10.20;;;4.53;;
74363;SDS011;62797;49.740;10.154;2023-12-28T05:33:44;13.23;;;4.00;;
74363;SDS011;62797;49.740;10.154;2023-12-28T05:36:09;10.17;;;5.17;;
74363;SDS011;62797;49.740;10.154;2023-12-28T05:38:35;8.83;;;4.17;;
74363;SDS011;62797;49.740;10.154;2023-12-28T05:41:01;13.33;;;5.00;;
74363;SDS011;62797;49.740;10.154;2023-12-28T05:43:26;8.80;;;3.97;;
74363;SDS011;62797;49.740;10.154;2023-12-28T05:45:52;11.02;;;4.93;;
74363;SDS011;62797;49.740;10.154;2023-12-28T05:48:18;10.63;;;4.53;;
74363;SDS011;62797;49.740;10.154;2023-12-28T05:50:43;13.13;;;5.53;;
74363;SDS011;62797;49.740;10.154;2023-12-28T05:53:09;10.80;;;4.90;;
74363;SDS011;62797;49.740;10.154;2023-12-28T05:55:39;6.13;;;3.28;;
74363;SDS011;62797;49.740;10.154;2023-12-28T05:58:09;8.07;;;3.63;;
74363;SDS011;62797;49.740;10.154;2023-12-28T06:00:34;6.50;;;3.35;;
74363;SDS011;62797;49.740;10.154;2023-12-28T06:03:04;7.20;;;3.20;;
74363;SDS011;62797;49.740;10.154;2023-12-28T06:05:30;6.28;;;3.00;;
74363;SDS011;62797;49.740;10.154;2023-12-28T06:07:56;5.13;;;2.65;;
74363;SDS011;62797;49.740;10.154;2023-12-28T06:10:22;7.40;;;2.78;;
74363;SDS011;62797;49.740;10.154;2023-12-28T06:12:49;4.60;;;2.97;;
74363;SDS011;62797;49.740;10.154;2023-12-28T06:15:17;4.00;;;2.80;;
74363;SDS011;62797;49.740;10.154;2023-12-28T06:17:42;5.17;;;2.63;;
74363;SDS011;62797;49.740;10.154;2023-12-28T06:20:11;3.35;;;2.35;;
74363;SDS011;62797;49.740;10.154;2023-12-28T06:22:37;7.88;;;2.90;;
74363;SDS011;62797;49.740;10.154;2023-12-28T06:25:03;2.22;;;1.75;;
74363;SDS011;62797;49.740;10.154;2023-12-28T06:27:29;4.60;;;2.25;;
74363;SDS011;62797;49.740;10.154;2023-12-28T06:29:55;4.03;;;2.80;;
74363;SDS011;62797;49.740;10.154;2023-12-28T06:32:21;8.02;;;2.60;;
74363;SDS011;62797;49.740;10.154;2023-12-28T06:34:47;4.10;;;2.55;;
74363;SDS011;62797;49.740;10.154;2023-12-28T06:37:13;5.07;;;2.58;;
74363;SDS011;62797;49.740;10.154;2023-12-28T06:39:39;4.18;;;2.22;;
74363;SDS011;62797;49.740;10.154;2023-12-28T06:42:05;17.45;;;3.90;;
74363;SDS011;62797;49.740;10.154;2023-12-28T06:44:31;9.73;;;2.20;;
74363;SDS011;62797;49.740;10.154;2023-12-28T06:46:57;5.53;;;2.20;;
74363;SDS011;62797;49.740;10.154;2023-12-28T06:49:24;7.10;;;2.40;;
74363;SDS011;62797;49.740;10.154;2023-12-28T06:51:50;4.93;;;2.38;;
74363;SDS011;62797;49.740;10.154;2023-12-28T06:54:16;4.38;;;2.67;;
74363;SDS011;62797;49.740;10.154;2023-12-28T06:56:42;3.80;;;2.70;;
74363;SDS011;62797;49.740;10.154;2023-12-28T06:59:08;4.65;;;2.85;;
74363;SDS011;62797;49.740;10.154;2023-12-28T07:01:37;4.18;;;2.30;;
74363;SDS011;62797;49.740;10.154;2023-12-28T07:04:03;8.95;;;2.63;;
74363;SDS011;62797;49.740;10.154;2023-12-28T07:06:29;5.53;;;2.90;;
74363;SDS011;62797;49.740;10.154;2023-12-28T07:08:55;4.70;;;3.17;;
74363;SDS011;62797;49.740;10.154;2023-12-28T07:11:20;9.07;;;2.30;;
74363;SDS011;62797;49.740;10.154;2023-12-28T07:13:46;4.80;;;3.50;;
74363;SDS011;62797;49.740;10.154;2023-12-28T07:16:12;3.30;;;2.30;;
74363;SDS011;62797;49.740;10.154;2023-12-28T07:18:38;6.68;;;2.80;;
74363;SDS011;62797;49.740;10.154;2023-12-28T07:21:03;2.77;;;2.23;;
74363;SDS011;62797;49.740;10.154;2023-12-28T07:23:31;5.20;;;2.38;;
74363;SDS011;62797;49.740;10.154;2023-12-28T07:25:57;6.35;;;2.72;;
74363;SDS011;62797;49.740;10.154;2023-12-28T07:28:22;24.00;;;3.53;;
74363;SDS011;62797;49.740;10.154;2023-12-28T07:30:48;4.23;;;2.33;;
74363;SDS011;62797;49.740;10.154;2023-12-28T07:33:14;4.60;;;2.23;;
74363;SDS011;62797;49.740;10.154;2023-12-28T07:35:39;4.50;;;2.30;;
74363;SDS011;62797;49.740;10.154;2023-12-28T07:38:05;5.63;;;2.78;;
74363;SDS011;62797;49.740;10.154;2023-12-28T07:40:31;5.47;;;2.30;;
74363;SDS011;62797;49.740;10.154;2023-12-28T07:42:56;5.33;;;3.17;;
74363;SDS011;62797;49.740;10.154;2023-12-28T07:45:22;5.15;;;2.78;;
74363;SDS011;62797;49.740;10.154;2023-12-28T07:47:52;3.17;;;2.53;;
74363;SDS011;62797;49.740;10.154;2023-12-28T07:50:19;2.78;;;1.85;;
74363;SDS011;62797;49.740;10.154;2023-12-28T07:52:45;2.83;;;2.10;;
74363;SDS011;62797;49.740;10.154;2023-12-28T07:55:12;4.00;;;2.83;;
74363;SDS011;62797;49.740;10.154;2023-12-28T07:57:37;3.60;;;2.03;;
74363;SDS011;62797;49.740;10.154;2023-12-28T08:00:03;3.70;;;2.40;;
74363;SDS011;62797;49.740;10.154;2023-12-28T08:02:30;4.75;;;2.90;;
74363;SDS011;62797;49.740;10.154;2023-12-28T08:04:56;3.25;;;2.30;;
74363;SDS011;62797;49.740;10.154;2023-12-28T08:07:22;4.00;;;2.78;;
74363;SDS011;62797;49.740;10.154;2023-12-28T08:09:47;3.45;;;2.30;;
74363;SDS011;62797;49.740;10.154;2023-12-28T08:12:13;3.83;;;3.10;;
74363;SDS011;62797;49.740;10.154;2023-12-28T08:14:39;3.63;;;2.43;;
74363;SDS011;62797;49.740;10.154;2023-12-28T08:17:04;2.30;;;2.07;;
74363;SDS011;62797;49.740;10.154;2023-12-28T08:19:32;5.10;;;3.17;;
74363;SDS011;62797;49.740;10.154;2023-12-28T08:22:01;6.00;;;2.70;;
74363;SDS011;62797;49.740;10.154;2023-12-28T08:24:28;4.43;;;2.30;;
74363;SDS011;62797;49.740;10.154;2023-12-28T08:26:54;6.30;;;2.40;;
74363;SDS011;62797;49.740;10.154;2023-12-28T08:29:24;2.70;;;1.90;;
74363;SDS011;62797;49.740;10.154;2023-12-28T08:31:50;2.95;;;2.03;;
74363;SDS011;62797;49.740;10.154;2023-12-28T08:34:15;2.85;;;2.15;;
74363;SDS011;62797;49.740;10.154;2023-12-28T08:36:41;2.40;;;2.20;;
74363;SDS011;62797;49.740;10.154;2023-12-28T08:39:07;4.00;;;2.70;;
74363;SDS011;62797;49.740;10.154;2023-12-28T08:41:33;5.03;;;3.10;;
74363;SDS011;62797;49.740;10.154;2023-12-28T08:43:58;4.30;;;3.22;;
74363;SDS011;62797;49.740;10.154;2023-12-28T08:46:26;4.55;;;2.63;;
74363;SDS011;62797;49.740;10.154;2023-12-28T08:48:54;5.63;;;2.30;;
74363;SDS011;62797;49.740;10.154;2023-12-28T08:51:20;3.13;;;2.47;;
74363;SDS011;62797;49.740;10.154;2023-12-28T08:56:18;4.60;;;2.47;;
74363;SDS011;62797;49.740;10.154;2023-12-28T08:58:45;4.82;;;3.05;;
74363;SDS011;62797;49.740;10.154;2023-12-28T09:01:19;9.77;;;4.65;;
74363;SDS011;62797;49.740;10.154;2023-12-28T09:03:50;5.05;;;3.00;;
74363;SDS011;62797;49.740;10.154;2023-12-28T09:06:17;9.52;;;3.10;;
74363;SDS011;62797;49.740;10.154;2023-12-28T09:08:45;7.43;;;3.17;;
74363;SDS011;62797;49.740;10.154;2023-12-28T09:11:17;5.95;;;2.67;;
74363;SDS011;62797;49.740;10.154;2023-12-28T09:16:10;4.45;;;3.03;;
74363;SDS011;62797;49.740;10.154;2023-12-28T09:18:37;4.43;;;2.45;;
74363;SDS011;62797;49.740;10.154;2023-12-28T09:21:04;4.03;;;2.45;;
74363;SDS011;62797;49.740;10.154;2023-12-28T09:23:31;3.90;;;2.47;;
74363;SDS011;62797;49.740;10.154;2023-12-28T09:28:26;4.50;;;2.42;;
74363;SDS011;62797;49.740;10.154;2023-12-28T09:30:52;3.30;;;2.47;;
74363;SDS011;62797;49.740;10.154;2023-12-28T09:33:17;5.53;;;2.60;;
74363;SDS011;62797;49.740;10.154;2023-12-28T09:35:43;3.33;;;2.67;;
74363;SDS011;62797;49.740;10.154;2023-12-28T09:38:09;3.50;;;1.88;;
74363;SDS011;62797;49.740;10.154;2023-12-28T09:40:38;3.60;;;1.97;;
74363;SDS011;62797;49.740;10.154;2023-12-28T09:45:49;5.25;;;2.85;;
74363;SDS011;62797;49.740;10.154;2023-12-28T09:48:24;4.55;;;2.42;;
74363;SDS011;62797;49.740;10.154;2023-12-28T09:50:51;3.80;;;2.53;;
74363;SDS011;62797;49.740;10.154;2023-12-28T09:53:21;4.47;;;2.15;;
74363;SDS011;62797;49.740;10.154;2023-12-28T09:55:55;4.97;;;3.00;;
74363;SDS011;62797;49.740;10.154;2023-12-28T09:58:21;6.00;;;3.08;;
74363;SDS011;62797;49.740;10.154;2023-12-28T10:00:50;9.02;;;3.42;;
74363;SDS011;62797;49.740;10.154;2023-12-28T10:03:16;4.72;;;2.72;;
74363;SDS011;62797;49.740;10.154;2023-12-28T10:05:46;6.07;;;3.85;;
74363;SDS011;62797;49.740;10.154;2023-12-28T10:08:12;3.60;;;2.88;;
74363;SDS011;62797;49.740;10.154;2023-12-28T10:10:39;6.70;;;3.45;;
74363;SDS011;62797;49.740;10.154;2023-12-28T10:13:06;6.28;;;2.63;;
74363;SDS011;62797;49.740;10.154;2023-12-28T10:15:33;5.70;;;3.00;;
74363;SDS011;62797;49.740;10.154;2023-12-28T10:18:00;5.43;;;2.88;;
74363;SDS011;62797;49.740;10.154;2023-12-28T10:20:26;7.07;;;2.77;;
74363;SDS011;62797;49.740;10.154;2023-12-28T10:25:20;4.32;;;2.75;;
74363;SDS011;62797;49.740;10.154;2023-12-28T10:27:49;6.13;;;3.47;;
74363;SDS011;62797;49.740;10.154;2023-12-28T10:30:16;3.92;;;3.10;;
74363;SDS011;62797;49.740;10.154;2023-12-28T10:32:42;4.67;;;2.87;;
74363;SDS011;62797;49.740;10.154;2023-12-28T10:35:07;5.47;;;3.03;;
74363;SDS011;62797;49.740;10.154;2023-12-28T10:37:33;5.18;;;3.03;;
74363;SDS011;62797;49.740;10.154;2023-12-28T10:40:06;5.35;;;2.90;;
74363;SDS011;62797;49.740;10.154;2023-12-28T10:42:34;4.25;;;2.60;;
74363;SDS011;62797;49.740;10.154;2023-12-28T10:45:14;7.32;;;3.45;;
74363;SDS011;62797;49.740;10.154;2023-12-28T10:47:42;6.50;;;3.67;;
74363;SDS011;62797;49.740;10.154;2023-12-28T10:50:13;5.60;;;3.78;;
74363;SDS011;62797;49.740;10.154;2023-12-28T10:52:41;6.35;;;3.05;;
74363;SDS011;62797;49.740;10.154;2023-12-28T11:00:43;3.90;;;2.70;;
74363;SDS011;62797;49.740;10.154;2023-12-28T11:03:18;5.93;;;3.00;;
74363;SDS011;62797;49.740;10.154;2023-12-28T11:05:50;4.07;;;3.20;;
74363;SDS011;62797;49.740;10.154;2023-12-28T11:08:17;4.88;;;2.92;;
74363;SDS011;62797;49.740;10.154;2023-12-28T11:10:45;8.77;;;3.50;;
74363;SDS011;62797;49.740;10.154;2023-12-28T11:13:12;7.38;;;4.00;;
74363;SDS011;62797;49.740;10.154;2023-12-28T11:15:40;5.70;;;2.83;;
74363;SDS011;62797;49.740;10.154;2023-12-28T11:18:06;7.80;;;3.00;;
74363;SDS011;62797;49.740;10.154;2023-12-28T11:20:32;8.75;;;3.38;;
74363;SDS011;62797;49.740;10.154;2023-12-28T11:22:59;7.72;;;3.38;;
74363;SDS011;62797;49.740;10.154;2023-12-28T11:25:30;4.15;;;2.80;;
74363;SDS011;62797;49.740;10.154;2023-12-28T11:27:57;4.45;;;2.60;;
74363;SDS011;62797;49.740;10.154;2023-12-28T11:30:26;4.35;;;2.55;;
74363;SDS011;62797;49.740;10.154;2023-12-28T11:32:55;6.45;;;3.85;;
74363;SDS011;62797;49.740;10.154;2023-12-28T11:35:31;6.45;;;2.88;;
74363;SDS011;62797;49.740;10.154;2023-12-28T11:38:20;3.50;;;2.50;;
74363;SDS011;62797;49.740;10.154;2023-12-28T11:40:52;4.20;;;2.50;;
74363;SDS011;62797;49.740;10.154;2023-12-28T11:43:21;3.00;;;2.58;;
74363;SDS011;62797;49.740;10.154;2023-12-28T11:45:51;4.17;;;2.40;;
74363;SDS011;62797;49.740;10.154;2023-12-28T11:48:24;5.03;;;3.05;;
74363;SDS011;62797;49.740;10.154;2023-12-28T11:50:56;7.35;;;2.97;;
74363;SDS011;62797;49.740;10.154;2023-12-28T11:53:26;4.82;;;2.60;;
74363;SDS011;62797;49.740;10.154;2023-12-28T11:55:59;4.97;;;2.40;;
74363;SDS011;62797;49.740;10.154;2023-12-28T11:58:30;9.00;;;2.47;;
74363;SDS011;62797;49.740;10.154;2023-12-28T12:00:55;3.40;;;2.47;;
74363;SDS011;62797;49.740;10.154;2023-12-28T12:05:49;3.63;;;2.42;;
74363;SDS011;62797;49.740;10.154;2023-12-28T12:08:15;3.60;;;2.27;;
74363;SDS011;62797;49.740;10.154;2023-12-28T12:10:43;6.60;;;2.65;;
74363;SDS011;62797;49.740;10.154;2023-12-28T12:13:09;3.95;;;2.35;;
74363;SDS011;62797;49.740;10.154;2023-12-28T12:15:35;2.78;;;2.15;;
74363;SDS011;62797;49.740;10.154;2023-12-28T12:18:01;6.07;;;2.10;;
74363;SDS011;62797;49.740;10.154;2023-12-28T12:20:27;5.05;;;2.70;;
74363;SDS011;62797;49.740;10.154;2023-12-28T12:25:22;4.50;;;3.03;;
74363;SDS011;62797;49.740;10.154;2023-12-28T12:27:51;4.35;;;2.15;;
74363;SDS011;62797;49.740;10.154;2023-12-28T12:30:20;5.68;;;2.40;;
74363;SDS011;62797;49.740;10.154;2023-12-28T12:32:46;11.02;;;3.22;;
74363;SDS011;62797;49.740;10.154;2023-12-28T12:37:40;11.00;;;3.58;;
74363;SDS011;62797;49.740;10.154;2023-12-28T12:40:06;5.13;;;2.88;;
74363;SDS011;62797;49.740;10.154;2023-12-28T12:42:33;5.65;;;3.05;;
74363;SDS011;62797;49.740;10.154;2023-12-28T12:44:59;7.97;;;3.10;;
74363;SDS011;62797;49.740;10.154;2023-12-28T12:47:24;5.60;;;3.57;;
74363;SDS011;62797;49.740;10.154;2023-12-28T12:49:55;6.13;;;2.55;;
74363;SDS011;62797;49.740;10.154;2023-12-28T12:52:21;7.57;;;3.20;;
74363;SDS011;62797;49.740;10.154;2023-12-28T12:55:00;5.25;;;2.90;;
74363;SDS011;62797;49.740;10.154;2023-12-28T12:57:26;6.00;;;3.20;;
74363;SDS011;62797;49.740;10.154;2023-12-28T12:59:52;5.97;;;2.95;;
74363;SDS011;62797;49.740;10.154;2023-12-28T13:02:18;6.10;;;3.88;;
74363;SDS011;62797;49.740;10.154;2023-12-28T13:04:48;9.13;;;3.22;;
74363;SDS011;62797;49.740;10.154;2023-12-28T13:07:17;4.30;;;3.10;;
74363;SDS011;62797;49.740;10.154;2023-12-28T13:09:42;4.03;;;3.07;;
74363;SDS011;62797;49.740;10.154;2023-12-28T13:12:08;4.20;;;3.27;;
74363;SDS011;62797;49.740;10.154;2023-12-28T13:14:34;5.63;;;3.40;;
74363;SDS011;62797;49.740;10.154;2023-12-28T13:16:59;6.10;;;3.50;;
74363;SDS011;62797;49.740;10.154;2023-12-28T13:19:25;5.53;;;3.87;;
74363;SDS011;62797;49.740;10.154;2023-12-28T13:21:54;8.18;;;3.83;;
74363;SDS011;62797;49.740;10.154;2023-12-28T13:24:20;5.60;;;2.85;;
74363;SDS011;62797;49.740;10.154;2023-12-28T13:26:45;5.50;;;3.10;;
74363;SDS011;62797;49.740;10.154;2023-12-28T13:29:11;7.03;;;3.73;;
74363;SDS011;62797;49.740;10.154;2023-12-28T13:31:37;7.53;;;3.60;;
74363;SDS011;62797;49.740;10.154;2023-12-28T13:34:03;3.15;;;2.40;;
74363;SDS011;62797;49.740;10.154;2023-12-28T13:36:28;5.00;;;2.97;;
74363;SDS011;62797;49.740;10.154;2023-12-28T13:38:54;4.60;;;2.70;;
74363;SDS011;62797;49.740;10.154;2023-12-28T13:41:20;7.03;;;3.23;;
74363;SDS011;62797;49.740;10.154;2023-12-28T13:43:46;4.20;;;2.90;;
74363;SDS011;62797;49.740;10.154;2023-12-28T13:46:11;7.90;;;2.63;;
74363;SDS011;62797;49.740;10.154;2023-12-28T13:48:37;4.60;;;2.90;;
74363;SDS011;62797;49.740;10.154;2023-12-28T13:51:05;6.05;;;3.25;;
74363;SDS011;62797;49.740;10.154;2023-12-28T13:53:31;3.97;;;3.03;;
74363;SDS011;62797;49.740;10.154;2023-12-28T13:56:00;6.18;;;3.33;;
74363;SDS011;62797;49.740;10.154;2023-12-28T13:58:26;4.60;;;2.83;;
74363;SDS011;62797;49.740;10.154;2023-12-28T14:00:52;4.57;;;2.80;;
74363;SDS011;62797;49.740;10.154;2023-12-28T14:03:18;4.73;;;2.50;;
74363;SDS011;62797;49.740;10.154;2023-12-28T14:05:43;3.53;;;2.60;;
74363;SDS011;62797;49.740;10.154;2023-12-28T14:08:09;3.57;;;2.20;;
74363;SDS011;62797;49.740;10.154;2023-12-28T14:10:34;5.50;;;3.00;;
74363;SDS011;62797;49.740;10.154;2023-12-28T14:13:03;6.55;;;2.78;;
74363;SDS011;62797;49.740;10.154;2023-12-28T14:15:30;5.32;;;2.47;;
74363;SDS011;62797;49.740;10.154;2023-12-28T14:17:56;4.97;;;2.47;;
74363;SDS011;62797;49.740;10.154;2023-12-28T14:20:21;4.37;;;2.67;;
74363;SDS011;62797;49.740;10.154;2023-12-28T14:22:50;4.03;;;2.40;;
74363;SDS011;62797;49.740;10.154;2023-12-28T14:25:15;4.15;;;3.00;;
74363;SDS011;62797;49.740;10.154;2023-12-28T14:27:42;3.88;;;2.13;;
74363;SDS011;62797;49.740;10.154;2023-12-28T14:30:08;4.65;;;2.25;;
74363;SDS011;62797;49.740;10.154;2023-12-28T14:32:36;3.58;;;2.65;;
74363;SDS011;62797;49.740;10.154;2023-12-28T14:35:02;3.63;;;1.80;;
74363;SDS011;62797;49.740;10.154;2023-12-28T14:37:28;5.07;;;3.67;;
74363;SDS011;62797;49.740;10.154;2023-12-28T14:39:54;3.47;;;2.43;;
74363;SDS011;62797;49.740;10.154;2023-12-28T14:42:19;6.77;;;3.30;;
74363;SDS011;62797;49.740;10.154;2023-12-28T14:44:48;4.00;;;1.87;;
74363;SDS011;62797;49.740;10.154;2023-12-28T14:47:15;2.35;;;1.90;;
74363;SDS011;62797;49.740;10.154;2023-12-28T14:49:41;3.93;;;2.80;;
74363;SDS011;62797;49.740;10.154;2023-12-28T14:52:06;8.37;;;2.60;;
74363;SDS011;62797;49.740;10.154;2023-12-28T14:54:32;3.97;;;2.43;;
74363;SDS011;62797;49.740;10.154;2023-12-28T14:56:58;10.00;;;4.33;;
74363;SDS011;62797;49.740;10.154;2023-12-28T14:59:23;3.77;;;1.90;;
74363;SDS011;62797;49.740;10.154;2023-12-28T15:01:49;2.83;;;2.10;;
74363;SDS011;62797;49.740;10.154;2023-12-28T15:04:16;4.28;;;2.55;;
74363;SDS011;62797;49.740;10.154;2023-12-28T15:06:41;2.90;;;2.13;;